Open Full Screen Window  High Contrast Mode
Wind Gusting 00 knots
09
September 25, 2018 11:55 AM EDT
Weather Information
Wind Direction
  190 °
Wind Speed
  09 kt (10 mph)
Wind Gust
  00 kt (0 mph)
Altimeter
29.95 in
Visibility
10 SM
Temperature
22° C
72° F
Dewpoint
21° C
70° F
Humidity
94%
1hr Rain Fall
00.00 in.
24hr Rain Fall
00.70 in.
Sky Condition
Overcast @ 1,500 ft
Broken @ 900 ft
IFR

METAR KONZ 251555Z AUTO 19009KT 10SM BKN009 OVC015 22/21 A2995 RMK AO2 T02180208

FAA Disclaimer: The data displayed is for advisory purposes only and is not to be used for flight planning or operations.